Alvada, OH (44802)

2:31 AM EST on December 11, 2016 (GMT -0500)
Arcadia Ohio Williesweather | | Change Station
Active Advisory: Winter Weather Advisory Active Notice: Public Information Statement

Elev 820 ft 41.12 °N, 83.52 °W | Updated 10 seconds ago

Snow
Snow
23.3 °F
Feels Like 23 °F
N
3.0
Wind Variable Wind from SSE
Gusts 5.0 mph

Today
High -- | Low -- °F
--% Chance of Precip.
Yesterday
High -- | Low -- °F
Precip. -- in
Pressure 30.37 in
Visibility 1.5 miles
Clouds Overcast 1500 ft
Windchill 23 °F
Dew Point 21 °F
Humidity 92%
Rainfall 0.00 in
Snow Depth Not available.
7:48 AM 5:05 PM
Waxing Gibbous, 89% visible
SPECI KFDY 110721Z AUTO 16006KT 1 1/2SM -SN BR OVC015 M04/M06 A3037 RMK AO2 P0001 T10391061
Pressure 30.37 in
Visibility 1.5 miles
Clouds Overcast 1500 ft
Windchill 23 °F
Dew Point 21 °F
Humidity 92%
Rainfall 0.00 in
Snow Depth Not available.
7:48 AM 5:05 PM
Waxing Gibbous, 89% visible
SPECI KFDY 110721Z AUTO 16006KT 1 1/2SM -SN BR OVC015 M04/M06 A3037 RMK AO2 P0001 T10391061

10-Day Weather Forecast

Almanac

Astronomy

Dec. 11, 2016 Rise Set
Actual Time
Civil Twilight
Nautical Twilight
Astronomical Twilight
Moon
Length of Visible Light
Length of Day
Tomorrow will be .
, % of the Moon is Illuminated

Today's Extremes

State Highs State Lows

Community

WunderPhotos

Upload Photos

1,956,707 photos uploaded!

WunderBlog® & News

Nearby

Air Quality

  Air Quality AQ Index Pollutant
Not available.

Snow Depth

Station Depth Elevation

Earthquake Activity

City Distance Mag. Time & Date
Minimum magnitude displayed is 2.5.

Coastal Water Temperatures

Place Temperature

Stations

Nearby Weather Stations

Station Location Temp. Windchill Dew Point Humidity Wind Precip. Elev Updated Type
                   

Watches & Warnings

Winter Weather Advisory
Issued: 9:09 PM EST Dec. 10, 2016 – National Weather Service

... Winter Weather Advisory remains in effect until 4 am EST
Monday...

* accumulations... snow accumulation of 1 to 3 inches tonight and
2 to 4 inches on Sunday making for a storm total of 3 to 7
inches by late Sunday night.

* Timing... snow will develop tonight and continue Sunday. The
snow will likely mix with or change to rain Sunday evening
before ending late Sunday night.

* Impacts... snow covered roads and walkways. Hazardous driving
conditions on untreated roads with reduced visibilities.

* Winds... south 5 to 10 mph tonight. South 10 to 20 mph with
gusts up to 25 mph Sunday.

* Temperatures... in the lower 20s tonight rising to the lower
30s Sunday and the mid 30s Sunday evening.

Precautionary/preparedness actions...

A Winter Weather Advisory for snow is issued when moderate
amounts of accumulating snow will cause travel difficulties. Be
prepared for snow covered roads and limited visibilities... and
use caution while driving.